createdAt,value
2023-04-06T00:01:47.351Z,100.00
2023-04-06T00:04:17.194Z,100.00
2023-04-06T00:06:46.946Z,100.00
2023-04-06T00:09:17.884Z,100.00
2023-04-06T00:11:47.528Z,100.00
2023-04-06T00:14:18.579Z,100.00
2023-04-06T00:16:47.632Z,100.00
2023-04-06T00:19:16.938Z,100.00
2023-04-06T00:21:46.447Z,100.00
2023-04-06T00:24:15.665Z,100.00
2023-04-06T00:26:44.467Z,100.00
2023-04-06T00:29:13.981Z,100.00
2023-04-06T00:31:42.979Z,100.00
2023-04-06T00:34:12.027Z,100.00
2023-04-06T00:36:42.074Z,100.00
2023-04-06T00:39:11.696Z,100.00
2023-04-06T00:41:41.334Z,100.00
2023-04-06T00:44:10.470Z,100.00
2023-04-06T00:46:39.402Z,100.00
2023-04-06T00:49:10.119Z,100.00
2023-04-06T00:51:39.379Z,100.00
2023-04-06T00:54:09.947Z,100.00
2023-04-06T00:56:40.558Z,100.00
2023-04-06T00:59:10.416Z,100.00
2023-04-06T01:01:41.519Z,100.00
2023-04-06T01:04:14.094Z,100.00
2023-04-06T01:06:44.817Z,100.00
2023-04-06T01:09:14.143Z,100.00
2023-04-06T01:11:44.198Z,100.00
2023-04-06T01:14:15.603Z,100.00
2023-04-06T01:16:49.787Z,100.00
2023-04-06T01:19:21.944Z,100.00
2023-04-06T01:21:54.448Z,100.00
2023-04-06T01:24:25.016Z,100.00
2023-04-06T01:27:14.915Z,100.00
2023-04-06T01:29:49.615Z,100.00
2023-04-06T01:32:20.659Z,100.00
2023-04-06T01:34:52.467Z,100.00
2023-04-06T01:37:21.294Z,100.00
2023-04-06T01:39:51.555Z,100.00
2023-04-06T01:42:22.092Z,100.00
2023-04-06T01:44:51.568Z,100.00
2023-04-06T01:47:21.411Z,100.00
2023-04-06T01:49:51.303Z,100.00
2023-04-06T01:52:22.140Z,100.00
2023-04-06T01:54:54.628Z,100.00
2023-04-06T01:57:26.573Z,100.00
2023-04-06T01:59:59.569Z,100.00
2023-04-06T02:02:35.155Z,100.00
2023-04-06T02:05:06.969Z,100.00
2023-04-06T02:07:37.531Z,100.00
2023-04-06T02:10:14.814Z,100.00
2023-04-06T02:12:45.228Z,100.00
2023-04-06T02:15:16.869Z,100.00
2023-04-06T02:17:47.551Z,100.00
2023-04-06T02:20:16.601Z,100.00
2023-04-06T02:22:47.077Z,100.00
2023-04-06T02:25:17.752Z,100.00
2023-04-06T02:27:47.117Z,100.00
2023-04-06T02:30:17.915Z,100.00
2023-04-06T02:32:47.360Z,100.00
2023-04-06T02:35:16.653Z,100.00
2023-04-06T02:37:47.408Z,100.00
2023-04-06T02:40:16.485Z,100.00
2023-04-06T02:42:46.137Z,100.00
2023-04-06T02:45:15.979Z,100.00
2023-04-06T02:47:48.199Z,100.00
2023-04-06T02:50:18.675Z,100.00
2023-04-06T02:52:49.493Z,100.00
2023-04-06T02:55:19.555Z,100.00
2023-04-06T02:57:50.551Z,100.00
2023-04-06T03:00:21.751Z,100.00
2023-04-06T03:02:52.143Z,100.00
2023-04-06T03:05:21.555Z,100.00
2023-04-06T03:07:53.065Z,100.00
2023-04-06T03:10:25.410Z,100.00
2023-04-06T03:12:54.592Z,100.00
2023-04-06T03:15:28.380Z,100.00
2023-04-06T03:18:00.887Z,100.00
2023-04-06T03:20:38.247Z,100.00
2023-04-06T03:23:08.213Z,100.00
2023-04-06T03:25:41.051Z,100.00
2023-04-06T03:28:11.630Z,100.00
2023-04-06T03:30:42.416Z,100.00
2023-04-06T03:33:11.813Z,100.00
2023-04-06T03:35:43.475Z,100.00
2023-04-06T03:38:14.345Z,100.00
2023-04-06T03:40:43.640Z,100.00
2023-04-06T03:43:12.603Z,100.00
2023-04-06T03:45:41.727Z,100.00
2023-04-06T03:48:11.552Z,100.00
2023-04-06T03:50:43.507Z,100.00
2023-04-06T03:53:12.893Z,100.00
2023-04-06T03:55:43.185Z,100.00
2023-04-06T03:58:14.052Z,100.00
2023-04-06T04:00:44.531Z,100.00
2023-04-06T04:03:16.610Z,100.00
2023-04-06T04:05:45.812Z,100.00
2023-04-06T04:08:16.491Z,100.00
2023-04-06T04:10:46.904Z,100.00
2023-04-06T04:13:15.538Z,100.00
2023-04-06T04:15:48.894Z,100.00
2023-04-06T04:18:18.334Z,100.00
2023-04-06T04:20:47.497Z,100.00
2023-04-06T04:23:16.616Z,100.00
2023-04-06T04:25:46.513Z,100.00
2023-04-06T04:28:15.742Z,100.00
2023-04-06T04:30:47.615Z,100.00
2023-04-06T04:33:16.750Z,100.00
2023-04-06T04:35:45.643Z,100.00
2023-04-06T04:38:17.641Z,100.00
2023-04-06T04:40:49.418Z,100.00
2023-04-06T04:43:20.128Z,100.00
2023-04-06T04:45:50.123Z,100.00
2023-04-06T04:48:22.040Z,100.00
2023-04-06T04:50:56.273Z,100.00
2023-04-06T04:53:27.752Z,100.00
2023-04-06T04:56:00.888Z,100.00
2023-04-06T04:58:32.583Z,100.00
2023-04-06T05:01:01.726Z,100.00
2023-04-06T05:03:33.786Z,100.00
2023-04-06T05:06:06.435Z,100.00
2023-04-06T05:08:37.364Z,100.00
2023-04-06T05:11:06.868Z,100.00
2023-04-06T05:13:39.515Z,100.00
2023-04-06T05:16:13.198Z,100.00
2023-04-06T05:18:42.535Z,100.00
2023-04-06T05:21:13.042Z,100.00
2023-04-06T05:23:43.832Z,100.00
2023-04-06T05:26:13.904Z,100.00
2023-04-06T05:28:46.070Z,100.00
2023-04-06T05:31:17.261Z,100.00
2023-04-06T05:33:52.103Z,100.00
2023-04-06T05:36:22.805Z,100.00
2023-04-06T05:38:54.022Z,100.00
2023-04-06T05:41:27.522Z,100.00
2023-04-06T05:43:56.864Z,100.00
2023-04-06T05:46:26.726Z,100.00
2023-04-06T05:48:57.869Z,100.00
2023-04-06T05:51:29.014Z,100.00
2023-04-06T05:54:00.431Z,100.00
2023-04-06T05:56:31.272Z,100.00
2023-04-06T05:59:00.574Z,100.00
2023-04-06T06:01:31.966Z,100.00
2023-04-06T06:04:03.432Z,100.00
2023-04-06T06:06:34.612Z,100.00
2023-04-06T06:09:06.145Z,100.00
2023-04-06T06:11:39.038Z,100.00
2023-04-06T06:14:08.387Z,100.00
2023-04-06T06:16:39.177Z,100.00
2023-04-06T06:19:10.532Z,100.00
2023-04-06T06:21:39.311Z,100.00
2023-04-06T06:24:10.798Z,100.00
2023-04-06T06:26:40.537Z,100.00
2023-04-06T06:29:13.459Z,100.00
2023-04-06T06:31:43.690Z,100.00
2023-04-06T06:34:14.135Z,100.00
2023-04-06T06:36:48.346Z,100.00
2023-04-06T06:39:18.644Z,99.84
2023-04-06T06:41:49.479Z,99.50
2023-04-06T06:44:19.376Z,99.28
2023-04-06T06:46:49.843Z,98.96
2023-04-06T06:49:20.651Z,98.60
2023-04-06T06:51:49.671Z,98.26
2023-04-06T06:54:19.707Z,97.62
2023-04-06T06:56:48.461Z,97.30
2023-04-06T06:59:17.453Z,97.03
2023-04-06T07:01:46.769Z,96.29
2023-04-06T07:04:17.176Z,96.05
2023-04-06T07:06:47.674Z,95.59
2023-04-06T07:09:16.807Z,95.13
2023-04-06T07:11:46.922Z,94.12
2023-04-06T07:14:17.664Z,93.16
2023-04-06T07:16:47.686Z,92.70
2023-04-06T07:19:18.037Z,92.55
2023-04-06T07:21:47.031Z,92.04
2023-04-06T07:24:16.200Z,91.94
2023-04-06T07:26:45.563Z,91.77
2023-04-06T07:29:14.917Z,91.82
2023-04-06T07:31:43.711Z,91.69
2023-04-06T07:34:13.347Z,91.44
2023-04-06T07:36:43.834Z,91.65
2023-04-06T07:39:12.696Z,91.64
2023-04-06T07:41:42.076Z,91.70
2023-04-06T07:44:11.240Z,91.73
2023-04-06T07:46:41.003Z,91.84
2023-04-06T07:49:11.806Z,91.93
2023-04-06T07:51:41.552Z,92.04
2023-04-06T07:54:11.107Z,91.95
2023-04-06T07:56:39.815Z,91.93
2023-04-06T07:59:09.516Z,91.87
2023-04-06T08:01:39.333Z,91.96
2023-04-06T08:04:09.105Z,91.88
2023-04-06T08:06:38.876Z,91.37
2023-04-06T08:09:09.904Z,91.20
2023-04-06T08:11:39.588Z,91.13
2023-04-06T08:14:09.166Z,91.25
2023-04-06T08:16:39.903Z,91.45
2023-04-06T08:19:10.614Z,91.67
2023-04-06T08:21:40.853Z,91.72
2023-04-06T08:24:10.179Z,91.64
2023-04-06T08:26:39.975Z,91.11
2023-04-06T08:29:10.912Z,90.71
2023-04-06T08:31:40.351Z,90.09
2023-04-06T08:34:12.220Z,89.72
2023-04-06T08:36:42.843Z,89.59
2023-04-06T08:39:11.558Z,89.12
2023-04-06T08:41:45.674Z,89.06
2023-04-06T08:44:16.831Z,89.12
2023-04-06T08:46:46.265Z,88.67
2023-04-06T08:49:15.236Z,88.71
2023-04-06T08:51:44.709Z,89.03
2023-04-06T08:54:13.640Z,89.02
2023-04-06T08:56:43.819Z,88.96
2023-04-06T08:59:13.255Z,88.43
2023-04-06T09:01:42.619Z,88.43
2023-04-06T09:04:13.392Z,88.57
2023-04-06T09:06:43.180Z,88.79
2023-04-06T09:09:13.091Z,89.11
2023-04-06T09:11:50.469Z,89.25
2023-04-06T09:14:38.555Z,89.34
2023-04-06T09:17:12.648Z,89.54
2023-04-06T09:19:48.550Z,89.42
2023-04-06T09:22:17.919Z,89.47
2023-04-06T09:24:55.530Z,89.51
2023-04-06T09:27:36.231Z,89.62
2023-04-06T09:30:12.385Z,89.76
2023-04-06T09:32:50.429Z,89.96
2023-04-06T09:35:25.022Z,90.25
2023-04-06T09:37:55.002Z,90.48
2023-04-06T09:40:25.205Z,90.80
2023-04-06T09:42:55.571Z,91.11
2023-04-06T09:45:24.557Z,91.69
2023-04-06T09:47:55.929Z,92.46
2023-04-06T09:50:26.929Z,93.41
2023-04-06T09:52:56.564Z,94.31
2023-04-06T09:55:30.721Z,95.14
2023-04-06T09:58:05.035Z,95.87
2023-04-06T10:00:53.095Z,96.61
2023-04-06T10:03:53.439Z,97.39
2023-04-06T10:06:24.301Z,98.70
2023-04-06T10:08:55.229Z,100.00
2023-04-06T10:11:26.095Z,100.00
2023-04-06T10:13:55.449Z,100.00
2023-04-06T10:16:25.672Z,100.00
2023-04-06T10:19:01.287Z,100.00
2023-04-06T10:21:31.707Z,100.00
2023-04-06T10:24:03.210Z,100.00
2023-04-06T10:26:32.919Z,100.00
2023-04-06T10:29:07.997Z,100.00
2023-04-06T10:31:41.120Z,100.00
2023-04-06T10:34:11.174Z,100.00
2023-04-06T10:36:41.727Z,100.00
2023-04-06T10:39:11.094Z,100.00
2023-04-06T10:41:45.902Z,100.00
2023-04-06T10:44:25.944Z,100.00
2023-04-06T10:47:02.883Z,100.00
2023-04-06T10:49:31.598Z,100.00
2023-04-06T10:52:01.102Z,100.00
2023-04-06T10:54:30.852Z,100.00
2023-04-06T10:57:00.515Z,100.00
2023-04-06T10:59:31.840Z,100.00
2023-04-06T11:02:01.147Z,100.00
2023-04-06T11:04:32.253Z,100.00
2023-04-06T11:07:02.973Z,100.00
2023-04-06T11:09:34.293Z,100.00
2023-04-06T11:12:03.925Z,100.00
2023-04-06T11:14:33.388Z,100.00
2023-04-06T11:17:03.361Z,100.00
2023-04-06T11:19:34.265Z,100.00
2023-04-06T11:22:09.289Z,100.00
2023-04-06T11:24:38.792Z,100.00
2023-04-06T11:27:07.938Z,100.00
2023-04-06T11:29:38.831Z,100.00
2023-04-06T11:32:09.396Z,100.00
2023-04-06T11:34:40.242Z,100.00
2023-04-06T11:37:12.260Z,100.00
2023-04-06T11:39:53.140Z,100.00
2023-04-06T11:42:30.181Z,100.00
2023-04-06T11:44:59.179Z,100.00
2023-04-06T11:47:33.602Z,100.00
2023-04-06T11:50:11.674Z,100.00
2023-04-06T11:52:42.054Z,100.00
2023-04-06T11:55:18.153Z,100.00
2023-04-06T11:57:47.447Z,100.00
2023-04-06T12:00:18.889Z,100.00
2023-04-06T12:02:49.961Z,100.00
2023-04-06T12:05:19.736Z,100.00
2023-04-06T12:07:50.205Z,100.00
2023-04-06T12:10:19.772Z,100.00
2023-04-06T12:12:49.101Z,100.00
2023-04-06T12:15:18.685Z,100.00
2023-04-06T12:17:48.218Z,100.00
2023-04-06T12:20:25.710Z,100.00
2023-04-06T12:22:50.728Z,100.00
2023-04-06T12:25:20.278Z,100.00
2023-04-06T12:27:50.715Z,100.00
2023-04-06T12:30:22.782Z,100.00
2023-04-06T12:32:53.601Z,100.00
2023-04-06T12:35:22.993Z,100.00
2023-04-06T12:37:52.163Z,100.00
2023-04-06T12:40:21.711Z,100.00
2023-04-06T12:42:50.782Z,100.00
2023-04-06T12:45:20.246Z,100.00
2023-04-06T12:47:50.723Z,100.00
2023-04-06T12:50:19.787Z,100.00
2023-04-06T12:52:53.853Z,100.00
2023-04-06T12:55:23.797Z,100.00
2023-04-06T12:57:56.907Z,100.00
2023-04-06T13:00:30.317Z,100.00
2023-04-06T13:03:02.503Z,100.00
2023-04-06T13:05:33.726Z,100.00
2023-04-06T13:08:04.465Z,100.00
2023-04-06T13:10:35.173Z,100.00
2023-04-06T13:13:05.474Z,100.00
2023-04-06T13:15:35.943Z,100.00
2023-04-06T13:18:05.900Z,100.00
2023-04-06T13:20:34.797Z,100.00
2023-04-06T13:23:03.399Z,100.00
2023-04-06T13:25:33.525Z,100.00
2023-04-06T13:28:02.229Z,100.00
2023-04-06T13:30:31.537Z,100.00
2023-04-06T13:33:01.911Z,100.00
2023-04-06T13:35:31.604Z,100.00
2023-04-06T13:38:02.818Z,100.00
2023-04-06T13:40:32.743Z,100.00
2023-04-06T13:43:01.936Z,100.00
2023-04-06T13:45:32.502Z,100.00
2023-04-06T13:48:02.015Z,100.00
2023-04-06T13:50:31.388Z,100.00
2023-04-06T13:53:00.166Z,100.00
2023-04-06T13:55:32.413Z,100.00
2023-04-06T13:58:03.626Z,100.00
2023-04-06T14:00:33.591Z,100.00
2023-04-06T14:03:06.057Z,100.00
2023-04-06T14:05:38.712Z,100.00
2023-04-06T14:08:11.131Z,100.00
2023-04-06T14:10:46.805Z,100.00
2023-04-06T14:13:20.701Z,100.00
2023-04-06T14:15:54.839Z,100.00
2023-04-06T14:18:24.319Z,100.00
2023-04-06T14:20:56.887Z,100.00
2023-04-06T14:23:27.334Z,100.00
2023-04-06T14:26:24.825Z,100.00
2023-04-06T14:29:03.171Z,100.00
2023-04-06T14:31:39.347Z,100.00
2023-04-06T14:34:15.628Z,100.00
2023-04-06T14:36:54.981Z,100.00
2023-04-06T14:39:26.485Z,100.00
2023-04-06T14:41:55.418Z,100.00
2023-04-06T14:44:24.432Z,100.00
2023-04-06T14:46:53.210Z,100.00
2023-04-06T14:49:22.299Z,100.00
2023-04-06T14:51:52.569Z,100.00
2023-04-06T14:54:23.252Z,100.00
2023-04-06T14:56:57.740Z,100.00
2023-04-06T15:02:00.236Z,100.00
2023-04-06T15:04:40.819Z,100.00
2023-04-06T15:07:13.182Z,100.00
2023-04-06T15:09:43.881Z,100.00
2023-04-06T15:12:12.886Z,100.00
2023-04-06T15:14:41.739Z,100.00
2023-04-06T15:17:10.754Z,100.00
2023-04-06T15:19:39.726Z,100.00
2023-04-06T15:22:09.649Z,100.00
2023-04-06T15:24:39.351Z,100.00
2023-04-06T15:27:09.774Z,100.00
2023-04-06T15:29:39.566Z,100.00
2023-04-06T15:32:08.402Z,100.00
2023-04-06T15:34:37.295Z,100.00
2023-04-06T15:37:06.385Z,100.00
2023-04-06T15:39:35.281Z,100.00
2023-04-06T15:42:05.660Z,100.00
2023-04-06T15:44:35.094Z,100.00
2023-04-06T15:47:03.979Z,100.00
2023-04-06T15:49:32.898Z,100.00
2023-04-06T15:52:07.525Z,100.00
2023-04-06T15:54:38.212Z,100.00
2023-04-06T15:57:08.101Z,100.00
2023-04-06T15:59:37.131Z,100.00
2023-04-06T16:02:06.695Z,100.00
2023-04-06T16:04:36.065Z,100.00
2023-04-06T16:07:05.292Z,100.00
2023-04-06T16:09:34.215Z,100.00
2023-04-06T16:12:03.180Z,100.00
2023-04-06T16:14:32.159Z,100.00
2023-04-06T16:17:01.839Z,100.00
2023-04-06T16:19:31.203Z,100.00
2023-04-06T16:22:01.286Z,100.00
2023-04-06T16:24:31.611Z,100.00
2023-04-06T16:27:01.961Z,100.00
2023-04-06T16:29:33.397Z,100.00
2023-04-06T16:32:04.026Z,100.00
2023-04-06T16:34:36.670Z,100.00
2023-04-06T16:37:06.083Z,100.00
2023-04-06T16:39:35.840Z,100.00
2023-04-06T16:42:05.953Z,100.00
2023-04-06T16:44:34.940Z,100.00
2023-04-06T16:47:04.391Z,100.00
2023-04-06T16:49:34.456Z,100.00
2023-04-06T16:52:05.322Z,100.00
2023-04-06T16:54:36.249Z,100.00
2023-04-06T16:57:06.994Z,100.00
2023-04-06T16:59:35.891Z,100.00
2023-04-06T17:02:06.285Z,100.00
2023-04-06T17:04:37.549Z,100.00
2023-04-06T17:07:07.052Z,100.00
2023-04-06T17:09:35.889Z,100.00
2023-04-06T17:12:06.800Z,100.00
2023-04-06T17:14:35.875Z,100.00
2023-04-06T17:17:04.511Z,100.00
2023-04-06T17:19:34.834Z,100.00
2023-04-06T17:22:04.091Z,100.00
2023-04-06T17:24:33.092Z,100.00
2023-04-06T17:27:03.010Z,100.00
2023-04-06T17:29:36.233Z,100.00
2023-04-06T17:32:06.275Z,100.00
2023-04-06T17:34:36.378Z,100.00
2023-04-06T17:37:05.378Z,100.00
2023-04-06T17:39:34.475Z,100.00
2023-04-06T17:42:04.765Z,100.00
2023-04-06T17:44:33.939Z,100.00
2023-04-06T17:47:03.578Z,100.00
2023-04-06T17:49:33.924Z,100.00
2023-04-06T17:52:03.179Z,100.00
2023-04-06T17:54:35.563Z,100.00
2023-04-06T17:57:07.317Z,100.00
2023-04-06T17:59:36.207Z,100.00
2023-04-06T18:02:06.997Z,100.00
2023-04-06T18:04:38.240Z,100.00
2023-04-06T18:07:07.202Z,100.00
2023-04-06T18:09:39.201Z,100.00
2023-04-06T18:12:08.452Z,100.00
2023-04-06T18:14:39.026Z,100.00
2023-04-06T18:17:09.827Z,100.00
2023-04-06T18:19:42.004Z,100.00
2023-04-06T18:22:11.924Z,100.00
2023-04-06T18:24:43.333Z,100.00
2023-04-06T18:27:12.925Z,100.00
2023-04-06T18:29:47.381Z,100.00
2023-04-06T18:32:17.279Z,100.00
2023-04-06T18:34:46.628Z,100.00
2023-04-06T18:37:16.033Z,100.00
2023-04-06T18:39:50.428Z,100.00
2023-04-06T18:42:20.581Z,100.00
2023-04-06T18:44:49.594Z,100.00
2023-04-06T18:47:19.263Z,100.00
2023-04-06T18:49:48.113Z,100.00
2023-04-06T18:52:17.658Z,100.00
2023-04-06T18:54:46.690Z,100.00
2023-04-06T18:57:17.897Z,100.00
2023-04-06T18:59:48.734Z,100.00
2023-04-06T19:02:19.657Z,100.00
2023-04-06T19:04:48.683Z,100.00
2023-04-06T19:07:17.948Z,100.00
2023-04-06T19:09:48.553Z,100.00
2023-04-06T19:12:17.629Z,100.00
2023-04-06T19:14:48.573Z,100.00
2023-04-06T19:17:18.478Z,100.00
2023-04-06T19:19:48.624Z,100.00
2023-04-06T19:22:17.792Z,100.00
2023-04-06T19:24:49.290Z,100.00
2023-04-06T19:27:18.347Z,100.00
2023-04-06T19:29:48.659Z,100.00
2023-04-06T19:32:17.807Z,100.00
2023-04-06T19:34:46.749Z,100.00
2023-04-06T19:37:15.666Z,100.00
2023-04-06T19:39:44.585Z,100.00
2023-04-06T19:42:20.171Z,100.00
2023-04-06T19:44:49.374Z,100.00
2023-04-06T19:47:18.385Z,100.00
2023-04-06T19:49:47.438Z,100.00
2023-04-06T19:52:16.781Z,100.00
2023-04-06T19:54:46.856Z,100.00
2023-04-06T19:57:16.197Z,100.00
2023-04-06T19:59:46.108Z,100.00
2023-04-06T20:02:14.926Z,100.00
2023-04-06T20:04:44.412Z,100.00
2023-04-06T20:07:14.821Z,99.87
2023-04-06T20:09:43.833Z,99.40
2023-04-06T20:12:12.900Z,99.27
2023-04-06T20:14:42.018Z,99.09
2023-04-06T20:17:12.325Z,99.12
2023-04-06T20:19:43.391Z,99.16
2023-04-06T20:22:13.019Z,99.09
2023-04-06T20:24:43.294Z,98.90
2023-04-06T20:27:12.670Z,98.61
2023-04-06T20:29:42.536Z,98.77
2023-04-06T20:32:11.982Z,98.77
2023-04-06T20:34:41.657Z,98.77
2023-04-06T20:37:11.414Z,98.56
2023-04-06T20:39:40.462Z,98.72
2023-04-06T20:42:10.180Z,98.59
2023-04-06T20:44:41.956Z,98.44
2023-04-06T20:47:11.138Z,98.43
2023-04-06T20:49:41.336Z,97.95
2023-04-06T20:52:10.281Z,97.35
2023-04-06T20:54:39.542Z,96.92
2023-04-06T20:57:08.416Z,96.86
2023-04-06T20:59:37.718Z,96.74
2023-04-06T21:02:07.032Z,96.79
2023-04-06T21:04:37.366Z,96.64
2023-04-06T21:07:06.966Z,96.54
2023-04-06T21:09:39.333Z,96.55
2023-04-06T21:12:09.033Z,96.50
2023-04-06T21:14:37.772Z,96.39
2023-04-06T21:17:07.468Z,96.42
2023-04-06T21:19:37.834Z,96.10
2023-04-06T21:22:07.095Z,96.14
2023-04-06T21:24:37.571Z,96.09
2023-04-06T21:27:08.290Z,96.16
2023-04-06T21:29:39.824Z,96.21
2023-04-06T21:32:09.430Z,96.36
2023-04-06T21:34:38.679Z,96.67
2023-04-06T21:37:09.179Z,96.45
2023-04-06T21:39:39.215Z,96.54
2023-04-06T21:42:08.166Z,96.18
2023-04-06T21:44:36.895Z,94.93
2023-04-06T21:47:05.928Z,94.54
2023-04-06T21:49:36.584Z,94.47
2023-04-06T21:52:05.414Z,94.56
2023-04-06T21:54:34.532Z,94.43
2023-04-06T21:57:04.492Z,94.36
2023-04-06T21:59:34.810Z,94.75
2023-04-06T22:02:05.697Z,94.86
2023-04-06T22:04:35.013Z,95.23
2023-04-06T22:07:04.436Z,95.68
2023-04-06T22:09:33.183Z,95.67
2023-04-06T22:12:04.398Z,95.59
2023-04-06T22:14:36.764Z,95.38
2023-04-06T22:17:06.201Z,95.35
2023-04-06T22:19:38.951Z,95.47
2023-04-06T22:22:07.772Z,95.24
2023-04-06T22:24:36.802Z,94.64
2023-04-06T22:27:06.098Z,94.48
2023-04-06T22:29:36.268Z,94.52
2023-04-06T22:32:06.888Z,94.08
2023-04-06T22:34:36.258Z,93.80
2023-04-06T22:37:05.191Z,93.62
2023-04-06T22:39:35.039Z,93.73
2023-04-06T22:42:05.672Z,93.02
2023-04-06T22:44:34.941Z,92.62
2023-04-06T22:47:03.706Z,92.46
2023-04-06T22:49:34.086Z,92.56
2023-04-06T22:52:04.706Z,92.70
2023-04-06T22:54:34.914Z,92.33
2023-04-06T22:57:04.113Z,91.96
2023-04-06T22:59:33.040Z,91.85
2023-04-06T23:02:02.011Z,91.52
2023-04-06T23:04:31.818Z,91.25
2023-04-06T23:07:02.247Z,91.00
2023-04-06T23:09:31.295Z,91.03
2023-04-06T23:12:00.149Z,90.87
2023-04-06T23:14:29.230Z,90.77
2023-04-06T23:16:58.689Z,90.84
2023-04-06T23:19:28.576Z,90.32
2023-04-06T23:21:58.477Z,90.26
2023-04-06T23:24:29.119Z,90.13
2023-04-06T23:26:59.252Z,89.87
2023-04-06T23:29:29.655Z,89.64
2023-04-06T23:31:58.684Z,89.36
2023-04-06T23:34:27.544Z,89.11
2023-04-06T23:37:00.008Z,88.75
2023-04-06T23:39:29.700Z,88.75
2023-04-06T23:41:58.265Z,88.30
2023-04-06T23:44:31.708Z,87.96
2023-04-06T23:47:02.346Z,87.68
2023-04-06T23:49:31.867Z,87.80
2023-04-06T23:52:00.640Z,88.25
2023-04-06T23:54:29.666Z,88.53
2023-04-06T23:56:59.346Z,88.45
2023-04-06T23:59:30.833Z,88.41
